createdAt,value
2023-01-11T00:03:05.933Z,7.00
2023-01-11T00:06:29.521Z,7.00
2023-01-11T00:09:56.050Z,7.00
2023-01-11T00:13:20.338Z,7.00
2023-01-11T00:16:43.965Z,7.00
2023-01-11T00:20:10.915Z,7.10
2023-01-11T00:23:36.135Z,7.10
2023-01-11T00:27:00.019Z,7.10
2023-01-11T00:30:24.308Z,7.10
2023-01-11T00:33:48.000Z,7.20
2023-01-11T00:37:13.455Z,7.30
2023-01-11T00:40:37.326Z,7.30
2023-01-11T00:44:18.888Z,7.40
2023-01-11T00:48:04.837Z,7.40
2023-01-11T00:51:29.013Z,7.50
2023-01-11T00:54:54.702Z,7.60
2023-01-11T00:58:18.195Z,7.60
2023-01-11T01:01:43.274Z,7.70
2023-01-11T01:05:07.570Z,7.80
2023-01-11T01:08:34.183Z,7.80
2023-01-11T01:11:59.258Z,7.90
2023-01-11T01:15:22.208Z,7.90
2023-01-11T01:18:46.096Z,7.90
2023-01-11T01:22:10.050Z,8.00
2023-01-11T01:25:34.067Z,8.00
2023-01-11T01:28:59.495Z,8.10
2023-01-11T01:32:23.085Z,8.10
2023-01-11T01:35:47.088Z,8.10
2023-01-11T01:39:12.386Z,8.10
2023-01-11T01:42:35.983Z,8.20
2023-01-11T01:46:01.505Z,8.20
2023-01-11T01:49:25.111Z,8.30
2023-01-11T01:52:53.827Z,8.30
2023-01-11T01:56:25.779Z,8.40
2023-01-11T01:59:59.423Z,8.40
2023-01-11T02:03:27.889Z,8.40
2023-01-11T02:06:54.817Z,8.50
2023-01-11T02:10:20.704Z,8.50
2023-01-11T02:13:46.403Z,8.50
2023-01-11T02:17:10.238Z,8.60
2023-01-11T02:21:07.515Z,8.60
2023-01-11T02:24:53.843Z,8.60
2023-01-11T02:33:44.306Z,8.70
2023-01-11T02:37:26.412Z,8.70
2023-01-11T02:40:57.671Z,8.80
2023-01-11T02:44:45.409Z,8.80
2023-01-11T02:48:20.066Z,8.80
2023-01-11T02:51:51.314Z,8.80
2023-01-11T02:55:18.248Z,8.70
2023-01-11T02:58:48.841Z,8.80
2023-01-11T03:02:14.404Z,8.80
2023-01-11T03:05:45.085Z,8.90
2023-01-11T03:09:20.585Z,8.90
2023-01-11T03:12:54.698Z,9.00
2023-01-11T03:16:25.631Z,9.10
2023-01-11T03:19:53.235Z,9.10
2023-01-11T03:23:27.479Z,9.10
2023-01-11T03:27:07.210Z,9.10
2023-01-11T03:30:36.111Z,9.10
2023-01-11T03:34:06.629Z,9.00
2023-01-11T03:37:36.415Z,9.00
2023-01-11T03:41:07.535Z,8.90
2023-01-11T03:44:36.119Z,9.00
2023-01-11T03:48:02.668Z,9.10
2023-01-11T03:51:29.306Z,9.10
2023-01-11T03:54:54.514Z,9.10
2023-01-11T03:58:18.297Z,9.20
2023-01-11T04:01:45.107Z,9.20
2023-01-11T04:05:11.291Z,9.30
2023-01-11T04:08:35.217Z,9.30
2023-01-11T04:11:59.294Z,9.30
2023-01-11T04:15:23.234Z,9.40
2023-01-11T04:18:48.629Z,9.40
2023-01-11T04:22:12.534Z,9.40
2023-01-11T04:25:36.087Z,9.40
2023-01-11T04:29:00.331Z,9.30
2023-01-11T04:32:26.639Z,9.20
2023-01-11T04:35:51.598Z,9.30
2023-01-11T04:39:15.339Z,9.20
2023-01-11T04:42:39.321Z,9.20
2023-01-11T04:46:05.633Z,9.20
2023-01-11T04:49:31.026Z,9.20
2023-01-11T04:53:00.404Z,9.20
2023-01-11T04:56:24.273Z,9.30
2023-01-11T04:59:48.336Z,9.30
2023-01-11T05:03:12.266Z,9.30
2023-01-11T05:06:43.840Z,9.40
2023-01-11T05:10:10.996Z,9.40
2023-01-11T05:13:45.520Z,9.40
2023-01-11T05:17:13.378Z,9.40
2023-01-11T05:20:37.304Z,9.40
2023-01-11T05:24:04.622Z,9.40
2023-01-11T05:27:29.497Z,9.40
2023-01-11T05:30:54.128Z,9.40
2023-01-11T05:34:19.197Z,9.40
2023-01-11T05:37:43.364Z,9.40
2023-01-11T05:41:08.445Z,9.40
2023-01-11T05:44:51.186Z,9.40
2023-01-11T05:48:15.720Z,9.40
2023-01-11T05:51:39.864Z,9.40
2023-01-11T05:55:04.715Z,9.40
2023-01-11T05:58:31.609Z,9.40
2023-01-11T06:01:59.697Z,9.40
2023-01-11T06:05:24.898Z,9.40
2023-01-11T06:08:56.938Z,9.40
2023-01-11T06:12:20.638Z,9.40
2023-01-11T06:15:44.532Z,9.40
2023-01-11T06:19:11.306Z,9.40
2023-01-11T06:22:35.461Z,9.40
2023-01-11T06:26:02.180Z,9.40
2023-01-11T06:29:26.414Z,9.40
2023-01-11T06:32:52.662Z,9.40
2023-01-11T06:36:20.293Z,9.40
2023-01-11T06:39:45.407Z,9.40
2023-01-11T06:43:10.658Z,9.40
2023-01-11T06:46:34.520Z,9.50
2023-01-11T06:49:58.480Z,9.50
2023-01-11T06:53:26.746Z,9.50
2023-01-11T06:56:52.470Z,9.50
2023-01-11T07:00:17.476Z,9.50
2023-01-11T07:03:41.639Z,9.50
2023-01-11T07:07:05.437Z,9.50
2023-01-11T07:10:31.229Z,9.60
2023-01-11T07:13:59.058Z,9.50
2023-01-11T07:17:23.421Z,9.60
2023-01-11T07:20:47.844Z,9.60
2023-01-11T07:24:11.579Z,9.50
2023-01-11T07:27:36.561Z,9.60
2023-01-11T07:31:00.761Z,9.60
2023-01-11T07:34:26.055Z,9.60
2023-01-11T07:37:53.136Z,9.70
2023-01-11T07:41:34.988Z,9.70
2023-01-11T07:45:03.939Z,9.70
2023-01-11T07:48:29.222Z,9.70
2023-01-11T07:51:53.547Z,9.70
2023-01-11T07:55:17.586Z,9.70
2023-01-11T07:58:41.568Z,9.70
2023-01-11T08:02:10.010Z,9.70
2023-01-11T08:05:33.822Z,9.80
2023-01-11T08:09:00.119Z,9.80
2023-01-11T08:12:41.052Z,9.80
2023-01-11T08:16:05.333Z,9.80
2023-01-11T08:19:30.589Z,9.80
2023-01-11T08:22:54.572Z,9.90
2023-01-11T08:26:18.521Z,9.90
2023-01-11T08:29:44.261Z,9.90
2023-01-11T08:33:07.896Z,9.90
2023-01-11T08:36:32.834Z,9.90
2023-01-11T08:39:56.854Z,9.90
2023-01-11T08:43:20.468Z,9.90
2023-01-11T08:46:44.739Z,9.90
2023-01-11T08:50:09.618Z,9.90
2023-01-11T08:53:34.843Z,9.90
2023-01-11T08:56:58.667Z,10.00
2023-01-11T09:00:22.492Z,9.90
2023-01-11T09:03:46.080Z,10.00
2023-01-11T09:07:09.655Z,10.00
2023-01-11T09:10:35.115Z,10.00
2023-01-11T09:13:58.678Z,10.00
2023-01-11T09:17:22.260Z,10.10
2023-01-11T09:20:45.864Z,10.10
2023-01-11T09:24:09.775Z,10.10
2023-01-11T09:27:34.708Z,10.20
2023-01-11T09:30:58.321Z,10.20
2023-01-11T09:34:22.371Z,10.30
2023-01-11T09:37:50.219Z,10.30
2023-01-11T09:41:30.981Z,10.30
2023-01-11T09:45:00.339Z,10.40
2023-01-11T09:48:33.146Z,10.40
2023-01-11T09:52:05.159Z,10.40
2023-01-11T09:55:40.985Z,10.50
2023-01-11T09:59:14.841Z,10.50
2023-01-11T10:02:51.382Z,10.50
2023-01-11T10:06:19.954Z,10.40
2023-01-11T10:18:27.364Z,10.40
2023-01-11T10:21:23.394Z,10.40
2023-01-11T10:24:50.595Z,10.50
2023-01-11T10:28:22.921Z,10.50
2023-01-11T10:32:09.714Z,10.50
2023-01-11T10:36:02.787Z,10.50
2023-01-11T10:39:50.605Z,10.50
2023-01-11T10:43:21.935Z,10.50
2023-01-11T10:46:49.295Z,10.40
2023-01-11T10:50:21.374Z,10.40
2023-01-11T10:53:55.788Z,10.40
2023-01-11T10:57:32.073Z,10.40
2023-01-11T11:01:08.594Z,10.40
2023-01-11T11:04:55.659Z,10.40
2023-01-11T11:08:27.466Z,10.40
2023-01-11T11:11:54.962Z,10.40
2023-01-11T11:15:25.432Z,10.50
2023-01-11T11:18:50.442Z,10.40
2023-01-11T11:22:14.623Z,10.40
2023-01-11T11:25:42.608Z,10.40
2023-01-11T11:29:09.019Z,10.50
2023-01-11T11:32:37.204Z,10.40
2023-01-11T11:36:07.505Z,10.40
2023-01-11T11:39:32.731Z,10.40
2023-01-11T11:43:11.703Z,10.30
2023-01-11T11:46:41.139Z,10.30
2023-01-11T11:50:44.200Z,10.30
2023-01-11T11:54:21.221Z,10.30
2023-01-11T11:57:45.371Z,10.40
2023-01-11T12:01:23.086Z,10.30
2023-01-11T12:04:49.500Z,10.30
2023-01-11T12:08:17.510Z,10.40
2023-01-11T12:11:42.960Z,10.40
2023-01-11T12:15:19.174Z,10.30
2023-01-11T12:18:43.731Z,10.30
2023-01-11T12:22:18.709Z,10.30
2023-01-11T12:26:06.281Z,10.30
2023-01-11T12:29:49.883Z,10.30
2023-01-11T12:33:29.544Z,10.30
2023-01-11T12:37:01.617Z,10.20
2023-01-11T12:40:34.383Z,10.10
2023-01-11T12:44:07.394Z,10.10
2023-01-11T12:47:55.180Z,10.10
2023-01-11T12:51:35.528Z,10.20
2023-01-11T12:55:15.268Z,10.20
2023-01-11T12:58:45.471Z,10.20
2023-01-11T13:02:30.711Z,10.20
2023-01-11T13:06:03.132Z,10.20
2023-01-11T13:09:40.589Z,10.20
2023-01-11T13:13:16.184Z,10.30
2023-01-11T13:16:48.299Z,10.20
2023-01-11T13:20:29.352Z,10.20
2023-01-11T13:23:56.189Z,10.20
2023-01-11T13:27:23.442Z,10.30
2023-01-11T13:30:48.180Z,10.30
2023-01-11T13:34:18.824Z,10.10
2023-01-11T13:37:49.159Z,10.10
2023-01-11T13:41:18.812Z,10.00
2023-01-11T13:44:48.728Z,10.00
2023-01-11T13:48:19.401Z,10.00
2023-01-11T13:51:47.710Z,10.10
2023-01-11T13:55:26.092Z,10.00
2023-01-11T13:58:57.051Z,10.00
2023-01-11T14:02:29.231Z,9.90
2023-01-11T14:06:03.493Z,9.90
2023-01-11T14:09:44.057Z,9.90
2023-01-11T14:13:53.867Z,9.90
2023-01-11T14:17:38.387Z,9.90
2023-01-11T14:21:08.002Z,9.80
2023-01-11T14:24:36.269Z,9.80
2023-01-11T14:28:27.162Z,9.90
2023-01-11T14:32:13.329Z,9.90
2023-01-11T14:35:57.797Z,10.00
2023-01-11T14:39:40.419Z,9.90
2023-01-11T14:43:31.167Z,9.90
2023-01-11T14:47:26.738Z,9.90
2023-01-11T14:51:07.143Z,9.90
2023-01-11T14:54:35.699Z,9.80
2023-01-11T14:58:05.762Z,9.70
2023-01-11T15:01:30.755Z,9.60
2023-01-11T15:05:42.202Z,9.50
2023-01-11T15:09:44.892Z,9.40
2023-01-11T15:13:14.326Z,9.40
2023-01-11T15:16:57.443Z,9.40
2023-01-11T15:20:23.287Z,9.40
2023-01-11T15:23:51.437Z,9.30
2023-01-11T15:27:25.289Z,9.30
2023-01-11T15:30:56.141Z,9.20
2023-01-11T15:34:27.109Z,9.20
2023-01-11T15:37:57.084Z,9.10
2023-01-11T15:41:50.282Z,9.10
2023-01-11T15:45:59.958Z,9.00
2023-01-11T15:49:59.592Z,8.80
2023-01-11T15:53:56.541Z,8.70
2023-01-11T15:57:44.430Z,8.70
2023-01-11T16:01:21.410Z,8.80
2023-01-11T16:04:50.061Z,8.80
2023-01-11T16:08:24.232Z,8.70
2023-01-11T16:12:00.422Z,8.60
2023-01-11T16:15:36.620Z,8.60
2023-01-11T16:19:06.446Z,8.60
2023-01-11T16:22:30.525Z,8.60
2023-01-11T16:25:57.657Z,8.60
2023-01-11T16:29:26.063Z,8.50
2023-01-11T16:32:49.942Z,8.50
2023-01-11T16:36:15.587Z,8.50
2023-01-11T16:39:39.173Z,8.50
2023-01-11T16:43:07.586Z,8.50
2023-01-11T16:47:13.710Z,8.40
2023-01-11T16:50:38.126Z,8.40
2023-01-11T16:54:02.866Z,8.40
2023-01-11T16:57:33.464Z,8.40
2023-01-11T17:00:59.779Z,8.40
2023-01-11T17:04:30.719Z,8.40
2023-01-11T17:07:55.343Z,8.40
2023-01-11T17:11:27.889Z,8.40
2023-01-11T17:15:08.272Z,8.30
2023-01-11T17:18:32.761Z,8.40
2023-01-11T17:22:04.291Z,8.30
2023-01-11T17:25:41.045Z,8.20
2023-01-11T17:29:09.255Z,8.30
2023-01-11T17:32:37.831Z,8.20
2023-01-11T17:36:02.507Z,8.10
2023-01-11T17:39:32.269Z,8.20
2023-01-11T17:43:18.537Z,8.20
2023-01-11T17:46:42.766Z,8.10
2023-01-11T17:50:19.436Z,8.10
2023-01-11T17:53:50.623Z,8.00
2023-01-11T17:57:17.313Z,8.00
2023-01-11T18:00:44.579Z,7.90
2023-01-11T18:04:19.232Z,7.90
2023-01-11T18:07:44.781Z,7.90
2023-01-11T18:11:08.489Z,7.90
2023-01-11T18:14:39.415Z,7.90
2023-01-11T18:18:05.970Z,7.90
2023-01-11T18:21:42.296Z,7.90
2023-01-11T18:25:18.882Z,7.90
2023-01-11T18:28:43.905Z,7.90
2023-01-11T18:32:11.643Z,7.80
2023-01-11T18:35:43.694Z,7.80
2023-01-11T18:39:11.238Z,7.70
2023-01-11T18:42:34.892Z,7.70
2023-01-11T18:45:58.608Z,7.70
2023-01-11T18:49:23.533Z,7.70
2023-01-11T18:52:47.040Z,7.70
2023-01-11T18:56:10.821Z,7.70
2023-01-11T18:59:34.356Z,7.70
2023-01-11T19:02:58.227Z,7.60
2023-01-11T19:06:23.089Z,7.60
2023-01-11T19:09:46.637Z,7.60
2023-01-11T19:13:10.647Z,7.60
2023-01-11T19:16:34.193Z,7.60
2023-01-11T19:19:57.690Z,7.70
2023-01-11T19:26:46.186Z,7.90
2023-01-11T19:30:11.980Z,7.90
2023-01-11T19:33:35.499Z,8.00
2023-01-11T19:36:59.606Z,8.00
2023-01-11T19:40:24.960Z,8.00
2023-01-11T19:43:48.609Z,8.00
2023-01-11T19:47:15.452Z,8.10
2023-01-11T19:50:39.916Z,8.10
2023-01-11T19:54:04.143Z,8.10
2023-01-11T19:57:29.661Z,8.10
2023-01-11T20:00:53.241Z,8.10
2023-01-11T20:04:18.131Z,8.10
2023-01-11T20:07:41.764Z,8.10
2023-01-11T20:11:07.554Z,8.10
2023-01-11T20:14:34.013Z,8.20
2023-01-11T20:17:58.850Z,8.20
2023-01-11T20:21:23.924Z,8.30
2023-01-11T20:24:47.568Z,8.40
2023-01-11T20:28:11.097Z,8.40
2023-01-11T20:31:36.667Z,8.50
2023-01-11T20:35:00.293Z,8.50
2023-01-11T20:38:24.125Z,8.50
2023-01-11T20:41:48.524Z,8.50
2023-01-11T20:45:13.139Z,8.60
2023-01-11T20:48:39.344Z,8.60
2023-01-11T20:52:02.994Z,8.60
2023-01-11T20:55:26.764Z,8.60
2023-01-11T20:58:51.423Z,8.60
2023-01-11T21:02:15.079Z,8.60
2023-01-11T21:05:40.383Z,8.70
2023-01-11T21:09:05.502Z,8.70
2023-01-11T21:12:29.146Z,8.70
2023-01-11T21:15:52.757Z,8.70
2023-01-11T21:19:16.796Z,8.70
2023-01-11T21:22:42.009Z,8.60
2023-01-11T21:26:11.545Z,8.60
2023-01-11T21:29:35.469Z,8.50
2023-01-11T21:32:59.554Z,8.50
2023-01-11T21:36:25.268Z,8.50
2023-01-11T21:39:52.187Z,8.50
2023-01-11T21:43:16.045Z,8.50
2023-01-11T21:46:40.257Z,8.50
2023-01-11T21:50:04.745Z,8.60
2023-01-11T21:53:30.664Z,8.60
2023-01-11T21:56:55.612Z,8.60
2023-01-11T22:00:20.410Z,8.60
2023-01-11T22:03:43.949Z,8.60
2023-01-11T22:07:07.587Z,8.50
2023-01-11T22:10:31.351Z,8.50
2023-01-11T22:13:56.585Z,8.40
2023-01-11T22:17:20.322Z,8.40
2023-01-11T22:20:44.254Z,8.30
2023-01-11T22:24:10.957Z,8.20
2023-01-11T22:27:35.042Z,8.20
2023-01-11T22:31:06.355Z,8.10
2023-01-11T22:34:34.408Z,8.00
2023-01-11T22:37:58.530Z,7.90
2023-01-11T22:41:24.102Z,7.90
2023-01-11T22:44:47.865Z,7.80
2023-01-11T22:48:13.027Z,7.80
2023-01-11T22:51:37.031Z,7.70
2023-01-11T22:55:00.733Z,7.60
2023-01-11T22:58:24.291Z,7.60
2023-01-11T23:01:47.853Z,7.60
2023-01-11T23:05:13.069Z,7.60
2023-01-11T23:08:40.705Z,7.60
2023-01-11T23:12:22.217Z,7.60
2023-01-11T23:15:46.529Z,7.60
2023-01-11T23:19:12.553Z,7.60
2023-01-11T23:22:37.437Z,7.70
2023-01-11T23:26:01.631Z,7.70
2023-01-11T23:29:25.612Z,7.70
2023-01-11T23:32:49.572Z,7.70
2023-01-11T23:36:13.711Z,7.70
2023-01-11T23:39:38.966Z,7.80
2023-01-11T23:43:02.603Z,7.80
2023-01-11T23:46:44.573Z,7.90
2023-01-11T23:50:09.661Z,7.90
2023-01-11T23:53:33.648Z,7.90
2023-01-11T23:57:00.180Z,7.90
